Aviation Digital Data Service (ADDS)

Output produced by METARs form (1738 UTC 25 June 2016)
found at http://aviationweather.gov/adds/metars/
 
KLFT 251653Z VRB03KT 10SM FEW065 33/23 A3010 RMK AO2 SLP192 T03280233